sensor_id;sensor_type;location;lat;lon;timestamp;temperature;humidity
33414;DHT22;60055;41.884;12.534;2023-02-08T00:01:37;5.20;99.90
33414;DHT22;60055;41.884;12.534;2023-02-08T00:04:03;5.20;99.90
33414;DHT22;60055;41.884;12.534;2023-02-08T00:06:29;5.30;99.90
33414;DHT22;60055;41.884;12.534;2023-02-08T00:08:55;5.00;99.90
33414;DHT22;60055;41.884;12.534;2023-02-08T00:11:20;5.20;99.90
33414;DHT22;60055;41.884;12.534;2023-02-08T00:13:46;5.10;99.90
33414;DHT22;60055;41.884;12.534;2023-02-08T00:16:14;5.00;99.90
33414;DHT22;60055;41.884;12.534;2023-02-08T00:18:40;5.00;99.90
33414;DHT22;60055;41.884;12.534;2023-02-08T00:21:08;5.10;99.90
33414;DHT22;60055;41.884;12.534;2023-02-08T00:23:34;5.10;99.90
33414;DHT22;60055;41.884;12.534;2023-02-08T00:26:00;5.20;99.90
33414;DHT22;60055;41.884;12.534;2023-02-08T00:28:26;5.20;99.90
33414;DHT22;60055;41.884;12.534;2023-02-08T00:30:51;5.10;99.90
33414;DHT22;60055;41.884;12.534;2023-02-08T00:33:17;5.20;99.90
33414;DHT22;60055;41.884;12.534;2023-02-08T00:35:44;5.20;99.90
33414;DHT22;60055;41.884;12.534;2023-02-08T00:38:10;5.10;99.90
33414;DHT22;60055;41.884;12.534;2023-02-08T00:40:36;5.00;99.90
33414;DHT22;60055;41.884;12.534;2023-02-08T00:43:02;5.00;99.90
33414;DHT22;60055;41.884;12.534;2023-02-08T00:45:27;5.00;99.90
33414;DHT22;60055;41.884;12.534;2023-02-08T00:47:53;5.00;99.90
33414;DHT22;60055;41.884;12.534;2023-02-08T00:50:19;5.10;99.90
33414;DHT22;60055;41.884;12.534;2023-02-08T00:52:44;5.00;99.90
33414;DHT22;60055;41.884;12.534;2023-02-08T00:55:10;5.00;99.90
33414;DHT22;60055;41.884;12.534;2023-02-08T00:57:36;5.00;99.90
33414;DHT22;60055;41.884;12.534;2023-02-08T01:00:03;5.00;99.90
33414;DHT22;60055;41.884;12.534;2023-02-08T01:02:29;4.90;99.90
33414;DHT22;60055;41.884;12.534;2023-02-08T01:04:55;4.90;99.90
33414;DHT22;60055;41.884;12.534;2023-02-08T01:07:20;4.90;99.90
33414;DHT22;60055;41.884;12.534;2023-02-08T01:09:46;4.80;99.90
33414;DHT22;60055;41.884;12.534;2023-02-08T01:12:12;5.00;99.90
33414;DHT22;60055;41.884;12.534;2023-02-08T01:14:38;4.90;99.90
33414;DHT22;60055;41.884;12.534;2023-02-08T01:17:04;4.90;99.90
33414;DHT22;60055;41.884;12.534;2023-02-08T01:19:30;4.90;99.90
33414;DHT22;60055;41.884;12.534;2023-02-08T01:21:56;5.00;99.90
33414;DHT22;60055;41.884;12.534;2023-02-08T01:24:21;4.90;99.90
33414;DHT22;60055;41.884;12.534;2023-02-08T01:26:47;5.00;99.90
33414;DHT22;60055;41.884;12.534;2023-02-08T01:29:14;5.00;99.90
33414;DHT22;60055;41.884;12.534;2023-02-08T01:31:41;5.00;99.90
33414;DHT22;60055;41.884;12.534;2023-02-08T01:34:08;5.00;99.90
33414;DHT22;60055;41.884;12.534;2023-02-08T01:36:35;5.10;99.90
33414;DHT22;60055;41.884;12.534;2023-02-08T01:39:03;5.10;99.90
33414;DHT22;60055;41.884;12.534;2023-02-08T01:41:34;5.00;99.90
33414;DHT22;60055;41.884;12.534;2023-02-08T01:47:10;5.10;99.90
33414;DHT22;60055;41.884;12.534;2023-02-08T01:49:37;5.00;99.90
33414;DHT22;60055;41.884;12.534;2023-02-08T01:52:13;5.10;99.90
33414;DHT22;60055;41.884;12.534;2023-02-08T01:54:48;5.10;99.90
33414;DHT22;60055;41.884;12.534;2023-02-08T01:57:15;4.90;99.90
33414;DHT22;60055;41.884;12.534;2023-02-08T02:00:07;4.80;99.90
33414;DHT22;60055;41.884;12.534;2023-02-08T02:02:37;4.90;99.90
33414;DHT22;60055;41.884;12.534;2023-02-08T02:05:03;5.10;99.90
33414;DHT22;60055;41.884;12.534;2023-02-08T02:07:29;5.00;99.90
33414;DHT22;60055;41.884;12.534;2023-02-08T02:10:18;4.90;99.90
33414;DHT22;60055;41.884;12.534;2023-02-08T02:12:46;4.90;99.90
33414;DHT22;60055;41.884;12.534;2023-02-08T02:15:12;5.00;99.90
33414;DHT22;60055;41.884;12.534;2023-02-08T02:17:38;4.90;99.90
33414;DHT22;60055;41.884;12.534;2023-02-08T02:20:08;5.00;99.90
33414;DHT22;60055;41.884;12.534;2023-02-08T02:31:09;4.90;99.90
33414;DHT22;60055;41.884;12.534;2023-02-08T02:39:24;5.00;99.90
33414;DHT22;60055;41.884;12.534;2023-02-08T02:44:57;5.00;99.90
33414;DHT22;60055;41.884;12.534;2023-02-08T02:52:54;4.80;99.90
33414;DHT22;60055;41.884;12.534;2023-02-08T02:55:25;4.80;99.90
33414;DHT22;60055;41.884;12.534;2023-02-08T02:57:53;4.70;99.90
33414;DHT22;60055;41.884;12.534;2023-02-08T03:00:25;4.60;99.90
33414;DHT22;60055;41.884;12.534;2023-02-08T03:02:51;4.80;99.90
33414;DHT22;60055;41.884;12.534;2023-02-08T03:05:18;4.70;99.90
33414;DHT22;60055;41.884;12.534;2023-02-08T03:10:45;4.80;99.90
33414;DHT22;60055;41.884;12.534;2023-02-08T03:16:19;4.80;99.90
33414;DHT22;60055;41.884;12.534;2023-02-08T03:24:28;4.50;99.90
33414;DHT22;60055;41.884;12.534;2023-02-08T03:27:12;4.50;99.90
33414;DHT22;60055;41.884;12.534;2023-02-08T03:29:53;4.60;99.90
33414;DHT22;60055;41.884;12.534;2023-02-08T03:32:29;4.50;99.90
33414;DHT22;60055;41.884;12.534;2023-02-08T03:35:18;4.50;99.90
33414;DHT22;60055;41.884;12.534;2023-02-08T03:40:17;4.40;99.90
33414;DHT22;60055;41.884;12.534;2023-02-08T03:42:45;4.50;99.90
33414;DHT22;60055;41.884;12.534;2023-02-08T03:45:21;4.50;99.90
33414;DHT22;60055;41.884;12.534;2023-02-08T03:47:52;4.30;99.90
33414;DHT22;60055;41.884;12.534;2023-02-08T03:50:19;4.40;99.90
33414;DHT22;60055;41.884;12.534;2023-02-08T03:52:46;4.50;99.90
33414;DHT22;60055;41.884;12.534;2023-02-08T03:55:17;4.30;99.90
33414;DHT22;60055;41.884;12.534;2023-02-08T04:00:34;4.10;99.90
33414;DHT22;60055;41.884;12.534;2023-02-08T04:03:14;4.20;99.90
33414;DHT22;60055;41.884;12.534;2023-02-08T04:05:41;4.00;99.90
33414;DHT22;60055;41.884;12.534;2023-02-08T04:08:08;4.10;99.90
33414;DHT22;60055;41.884;12.534;2023-02-08T04:10:34;4.30;99.90
33414;DHT22;60055;41.884;12.534;2023-02-08T04:12:59;4.20;99.90
33414;DHT22;60055;41.884;12.534;2023-02-08T04:15:25;4.20;99.90
33414;DHT22;60055;41.884;12.534;2023-02-08T04:17:52;4.30;99.90
33414;DHT22;60055;41.884;12.534;2023-02-08T04:20:18;4.20;99.90
33414;DHT22;60055;41.884;12.534;2023-02-08T04:22:44;4.20;99.90
33414;DHT22;60055;41.884;12.534;2023-02-08T04:25:10;4.20;99.90
33414;DHT22;60055;41.884;12.534;2023-02-08T04:27:35;4.20;99.90
33414;DHT22;60055;41.884;12.534;2023-02-08T04:30:03;4.10;99.90
33414;DHT22;60055;41.884;12.534;2023-02-08T04:32:29;4.00;99.90
33414;DHT22;60055;41.884;12.534;2023-02-08T04:34:54;4.10;99.90
33414;DHT22;60055;41.884;12.534;2023-02-08T04:37:20;4.20;99.90
33414;DHT22;60055;41.884;12.534;2023-02-08T04:39:46;4.20;99.90
33414;DHT22;60055;41.884;12.534;2023-02-08T04:42:11;4.30;99.90
33414;DHT22;60055;41.884;12.534;2023-02-08T04:44:37;4.20;99.90
33414;DHT22;60055;41.884;12.534;2023-02-08T04:47:02;4.10;99.90
33414;DHT22;60055;41.884;12.534;2023-02-08T04:49:28;4.10;99.90
33414;DHT22;60055;41.884;12.534;2023-02-08T04:51:54;4.00;99.90
33414;DHT22;60055;41.884;12.534;2023-02-08T04:54:19;4.00;99.90
33414;DHT22;60055;41.884;12.534;2023-02-08T04:56:45;3.90;99.90
33414;DHT22;60055;41.884;12.534;2023-02-08T04:59:11;4.00;99.90
33414;DHT22;60055;41.884;12.534;2023-02-08T05:01:37;4.10;99.90
33414;DHT22;60055;41.884;12.534;2023-02-08T05:04:02;3.90;99.90
33414;DHT22;60055;41.884;12.534;2023-02-08T05:06:28;4.10;99.90
33414;DHT22;60055;41.884;12.534;2023-02-08T05:08:54;4.10;99.90
33414;DHT22;60055;41.884;12.534;2023-02-08T05:11:20;4.00;99.90
33414;DHT22;60055;41.884;12.534;2023-02-08T05:13:46;4.10;99.90
33414;DHT22;60055;41.884;12.534;2023-02-08T05:16:17;4.00;99.90
33414;DHT22;60055;41.884;12.534;2023-02-08T05:18:44;4.30;99.90
33414;DHT22;60055;41.884;12.534;2023-02-08T05:21:09;4.20;99.90
33414;DHT22;60055;41.884;12.534;2023-02-08T05:23:36;4.00;99.90
33414;DHT22;60055;41.884;12.534;2023-02-08T05:26:06;4.10;99.90
33414;DHT22;60055;41.884;12.534;2023-02-08T05:28:32;4.20;99.90
33414;DHT22;60055;41.884;12.534;2023-02-08T05:30:58;4.10;99.90
33414;DHT22;60055;41.884;12.534;2023-02-08T05:33:24;4.00;99.90
33414;DHT22;60055;41.884;12.534;2023-02-08T05:35:49;4.10;99.90
33414;DHT22;60055;41.884;12.534;2023-02-08T05:38:15;4.00;99.90
33414;DHT22;60055;41.884;12.534;2023-02-08T05:40:40;4.10;99.90
33414;DHT22;60055;41.884;12.534;2023-02-08T05:43:06;4.10;99.90
33414;DHT22;60055;41.884;12.534;2023-02-08T05:45:32;4.20;99.90
33414;DHT22;60055;41.884;12.534;2023-02-08T05:47:57;4.20;99.90
33414;DHT22;60055;41.884;12.534;2023-02-08T05:50:23;4.20;99.90
33414;DHT22;60055;41.884;12.534;2023-02-08T05:52:48;4.10;99.90
33414;DHT22;60055;41.884;12.534;2023-02-08T05:55:16;4.10;99.90
33414;DHT22;60055;41.884;12.534;2023-02-08T05:57:41;4.00;99.90
33414;DHT22;60055;41.884;12.534;2023-02-08T06:00:08;4.10;99.90
33414;DHT22;60055;41.884;12.534;2023-02-08T06:02:33;4.20;99.90
33414;DHT22;60055;41.884;12.534;2023-02-08T06:04:59;4.10;99.90
33414;DHT22;60055;41.884;12.534;2023-02-08T06:07:25;4.00;99.90
33414;DHT22;60055;41.884;12.534;2023-02-08T06:09:50;4.10;99.90
33414;DHT22;60055;41.884;12.534;2023-02-08T06:12:16;4.00;99.90
33414;DHT22;60055;41.884;12.534;2023-02-08T06:14:46;4.00;99.90
33414;DHT22;60055;41.884;12.534;2023-02-08T06:17:13;4.00;99.90
33414;DHT22;60055;41.884;12.534;2023-02-08T06:19:38;3.90;99.90
33414;DHT22;60055;41.884;12.534;2023-02-08T06:22:04;4.00;99.90
33414;DHT22;60055;41.884;12.534;2023-02-08T06:24:29;3.90;99.90
33414;DHT22;60055;41.884;12.534;2023-02-08T06:26:55;3.80;99.90
33414;DHT22;60055;41.884;12.534;2023-02-08T06:29:21;3.90;99.90
33414;DHT22;60055;41.884;12.534;2023-02-08T06:31:47;3.90;99.90
33414;DHT22;60055;41.884;12.534;2023-02-08T06:34:14;3.80;99.90
33414;DHT22;60055;41.884;12.534;2023-02-08T06:36:40;3.90;99.90
33414;DHT22;60055;41.884;12.534;2023-02-08T06:39:06;4.00;99.90
33414;DHT22;60055;41.884;12.534;2023-02-08T06:41:31;3.90;99.90
33414;DHT22;60055;41.884;12.534;2023-02-08T06:43:57;3.80;99.90
33414;DHT22;60055;41.884;12.534;2023-02-08T06:46:24;3.80;99.90
33414;DHT22;60055;41.884;12.534;2023-02-08T06:48:50;3.90;99.90
33414;DHT22;60055;41.884;12.534;2023-02-08T06:51:15;3.70;99.90
33414;DHT22;60055;41.884;12.534;2023-02-08T06:53:42;3.90;99.90
33414;DHT22;60055;41.884;12.534;2023-02-08T06:56:09;3.90;99.90
33414;DHT22;60055;41.884;12.534;2023-02-08T06:58:34;3.90;99.90
33414;DHT22;60055;41.884;12.534;2023-02-08T07:01:00;3.90;99.90
33414;DHT22;60055;41.884;12.534;2023-02-08T07:03:26;4.00;99.90
33414;DHT22;60055;41.884;12.534;2023-02-08T07:05:51;4.00;99.90
33414;DHT22;60055;41.884;12.534;2023-02-08T07:08:17;4.10;99.90
33414;DHT22;60055;41.884;12.534;2023-02-08T07:10:42;4.00;99.90
33414;DHT22;60055;41.884;12.534;2023-02-08T07:13:09;4.00;69.40
33414;DHT22;60055;41.884;12.534;2023-02-08T07:15:34;4.10;99.90
33414;DHT22;60055;41.884;12.534;2023-02-08T07:18:00;4.20;99.90
33414;DHT22;60055;41.884;12.534;2023-02-08T07:20:25;4.20;99.90
33414;DHT22;60055;41.884;12.534;2023-02-08T07:22:51;4.30;99.90
33414;DHT22;60055;41.884;12.534;2023-02-08T07:25:17;4.30;99.90
33414;DHT22;60055;41.884;12.534;2023-02-08T07:27:42;4.30;99.90
33414;DHT22;60055;41.884;12.534;2023-02-08T07:30:08;4.40;99.90
33414;DHT22;60055;41.884;12.534;2023-02-08T07:32:34;4.60;99.90
33414;DHT22;60055;41.884;12.534;2023-02-08T07:35:00;4.50;99.90
33414;DHT22;60055;41.884;12.534;2023-02-08T07:37:26;4.60;99.90
33414;DHT22;60055;41.884;12.534;2023-02-08T07:39:52;4.60;99.90
33414;DHT22;60055;41.884;12.534;2023-02-08T07:42:17;4.70;99.90
33414;DHT22;60055;41.884;12.534;2023-02-08T07:44:44;4.70;99.90
33414;DHT22;60055;41.884;12.534;2023-02-08T07:47:09;5.00;99.90
33414;DHT22;60055;41.884;12.534;2023-02-08T07:49:35;5.00;99.90
33414;DHT22;60055;41.884;12.534;2023-02-08T07:52:01;5.00;99.90
33414;DHT22;60055;41.884;12.534;2023-02-08T07:54:27;5.20;99.90
33414;DHT22;60055;41.884;12.534;2023-02-08T07:56:53;5.40;99.90
33414;DHT22;60055;41.884;12.534;2023-02-08T07:59:19;5.70;99.90
33414;DHT22;60055;41.884;12.534;2023-02-08T08:01:44;5.80;99.90
33414;DHT22;60055;41.884;12.534;2023-02-08T08:04:10;5.50;99.90
33414;DHT22;60055;41.884;12.534;2023-02-08T08:06:35;5.40;99.90
33414;DHT22;60055;41.884;12.534;2023-02-08T08:09:01;5.40;99.90
33414;DHT22;60055;41.884;12.534;2023-02-08T08:11:27;5.20;99.90
33414;DHT22;60055;41.884;12.534;2023-02-08T08:13:53;5.50;99.90
33414;DHT22;60055;41.884;12.534;2023-02-08T08:16:19;5.60;99.90
33414;DHT22;60055;41.884;12.534;2023-02-08T08:18:45;5.70;99.90
33414;DHT22;60055;41.884;12.534;2023-02-08T08:21:11;6.20;99.90
33414;DHT22;60055;41.884;12.534;2023-02-08T08:23:37;6.30;99.90
33414;DHT22;60055;41.884;12.534;2023-02-08T08:26:18;6.40;99.90
33414;DHT22;60055;41.884;12.534;2023-02-08T08:28:44;6.40;99.90
33414;DHT22;60055;41.884;12.534;2023-02-08T08:31:16;6.50;99.90
33414;DHT22;60055;41.884;12.534;2023-02-08T08:33:42;6.50;99.90
33414;DHT22;60055;41.884;12.534;2023-02-08T08:36:08;6.90;99.90
33414;DHT22;60055;41.884;12.534;2023-02-08T08:38:34;6.90;99.90
33414;DHT22;60055;41.884;12.534;2023-02-08T08:41:06;6.50;99.90
33414;DHT22;60055;41.884;12.534;2023-02-08T08:43:32;6.30;99.90
33414;DHT22;60055;41.884;12.534;2023-02-08T08:45:57;6.70;99.90
33414;DHT22;60055;41.884;12.534;2023-02-08T08:48:23;6.80;99.90
33414;DHT22;60055;41.884;12.534;2023-02-08T08:50:49;7.00;99.90
33414;DHT22;60055;41.884;12.534;2023-02-08T08:53:14;7.10;99.90
33414;DHT22;60055;41.884;12.534;2023-02-08T08:55:40;7.30;99.90
33414;DHT22;60055;41.884;12.534;2023-02-08T08:58:06;7.50;99.90
33414;DHT22;60055;41.884;12.534;2023-02-08T09:00:31;7.70;99.90
33414;DHT22;60055;41.884;12.534;2023-02-08T09:02:57;7.50;99.90
33414;DHT22;60055;41.884;12.534;2023-02-08T09:05:23;7.60;99.90
33414;DHT22;60055;41.884;12.534;2023-02-08T09:07:48;7.60;99.90
33414;DHT22;60055;41.884;12.534;2023-02-08T09:10:15;7.70;99.90
33414;DHT22;60055;41.884;12.534;2023-02-08T09:12:40;7.80;99.90
33414;DHT22;60055;41.884;12.534;2023-02-08T09:15:06;7.80;99.90
33414;DHT22;60055;41.884;12.534;2023-02-08T09:17:32;7.90;99.90
33414;DHT22;60055;41.884;12.534;2023-02-08T09:19:58;7.80;99.90
33414;DHT22;60055;41.884;12.534;2023-02-08T09:22:23;7.70;99.90
33414;DHT22;60055;41.884;12.534;2023-02-08T09:24:51;8.20;99.90
33414;DHT22;60055;41.884;12.534;2023-02-08T09:27:18;8.00;99.90
33414;DHT22;60055;41.884;12.534;2023-02-08T09:29:44;7.90;99.90
33414;DHT22;60055;41.884;12.534;2023-02-08T09:32:10;8.20;99.90
33414;DHT22;60055;41.884;12.534;2023-02-08T09:34:35;7.60;99.90
33414;DHT22;60055;41.884;12.534;2023-02-08T09:37:01;7.80;99.90
33414;DHT22;60055;41.884;12.534;2023-02-08T09:39:27;8.20;99.90
33414;DHT22;60055;41.884;12.534;2023-02-08T09:42:07;8.10;99.90
33414;DHT22;60055;41.884;12.534;2023-02-08T09:44:54;8.50;99.90
33414;DHT22;60055;41.884;12.534;2023-02-08T09:47:34;8.50;99.90
33414;DHT22;60055;41.884;12.534;2023-02-08T09:52:45;8.50;99.90
33414;DHT22;60055;41.884;12.534;2023-02-08T09:58:28;8.40;99.90
33414;DHT22;60055;41.884;12.534;2023-02-08T10:00:55;8.50;99.90
33414;DHT22;60055;41.884;12.534;2023-02-08T10:03:40;8.70;99.90
33414;DHT22;60055;41.884;12.534;2023-02-08T10:06:10;8.60;99.90
33414;DHT22;60055;41.884;12.534;2023-02-08T10:08:37;8.70;99.90
33414;DHT22;60055;41.884;12.534;2023-02-08T10:13:43;8.70;99.90
33414;DHT22;60055;41.884;12.534;2023-02-08T10:30:47;8.70;99.90
33414;DHT22;60055;41.884;12.534;2023-02-08T10:33:24;8.70;99.90
33414;DHT22;60055;41.884;12.534;2023-02-08T10:35:52;8.80;99.90
33414;DHT22;60055;41.884;12.534;2023-02-08T10:40:45;8.70;99.90
33414;DHT22;60055;41.884;12.534;2023-02-08T10:48:37;8.90;99.90
33414;DHT22;60055;41.884;12.534;2023-02-08T10:51:16;9.10;99.90
33414;DHT22;60055;41.884;12.534;2023-02-08T10:53:46;9.00;99.90
33414;DHT22;60055;41.884;12.534;2023-02-08T10:56:42;9.00;99.90
33414;DHT22;60055;41.884;12.534;2023-02-08T10:59:21;9.10;99.90
33414;DHT22;60055;41.884;12.534;2023-02-08T11:01:49;9.10;99.90
33414;DHT22;60055;41.884;12.534;2023-02-08T11:04:16;9.20;99.90
33414;DHT22;60055;41.884;12.534;2023-02-08T11:06:44;9.10;99.90
33414;DHT22;60055;41.884;12.534;2023-02-08T11:09:20;9.20;99.90
33414;DHT22;60055;41.884;12.534;2023-02-08T11:11:46;9.30;99.90
33414;DHT22;60055;41.884;12.534;2023-02-08T11:14:16;9.20;99.90
33414;DHT22;60055;41.884;12.534;2023-02-08T11:16:51;9.20;99.90
33414;DHT22;60055;41.884;12.534;2023-02-08T11:19:35;9.30;99.90
33414;DHT22;60055;41.884;12.534;2023-02-08T11:22:03;9.40;99.90
33414;DHT22;60055;41.884;12.534;2023-02-08T11:24:34;9.50;99.90
33414;DHT22;60055;41.884;12.534;2023-02-08T11:27:37;9.60;99.90
33414;DHT22;60055;41.884;12.534;2023-02-08T11:32:42;9.60;99.90
33414;DHT22;60055;41.884;12.534;2023-02-08T11:37:47;9.50;99.90
33414;DHT22;60055;41.884;12.534;2023-02-08T11:40:36;9.60;99.90
33414;DHT22;60055;41.884;12.534;2023-02-08T11:43:03;9.80;99.90
33414;DHT22;60055;41.884;12.534;2023-02-08T11:45:34;9.70;99.90
33414;DHT22;60055;41.884;12.534;2023-02-08T11:48:01;9.80;99.90
33414;DHT22;60055;41.884;12.534;2023-02-08T11:50:36;9.90;99.90
33414;DHT22;60055;41.884;12.534;2023-02-08T11:53:16;9.80;99.90
33414;DHT22;60055;41.884;12.534;2023-02-08T11:56:04;9.80;99.90
33414;DHT22;60055;41.884;12.534;2023-02-08T12:01:42;9.90;99.90
33414;DHT22;60055;41.884;12.534;2023-02-08T12:04:17;9.90;99.90
33414;DHT22;60055;41.884;12.534;2023-02-08T12:15:20;10.30;99.90
33414;DHT22;60055;41.884;12.534;2023-02-08T12:21:01;10.60;99.90
33414;DHT22;60055;41.884;12.534;2023-02-08T12:26:54;10.70;99.90
33414;DHT22;60055;41.884;12.534;2023-02-08T12:29:55;10.60;99.90
33414;DHT22;60055;41.884;12.534;2023-02-08T12:33:14;10.60;99.90
33414;DHT22;60055;41.884;12.534;2023-02-08T12:48:02;10.50;99.90
33414;DHT22;60055;41.884;12.534;2023-02-08T12:50:42;10.30;99.90
33414;DHT22;60055;41.884;12.534;2023-02-08T12:53:45;10.20;99.90
33414;DHT22;60055;41.884;12.534;2023-02-08T12:56:07;10.10;99.90
33414;DHT22;60055;41.884;12.534;2023-02-08T12:58:47;10.10;99.90
33414;DHT22;60055;41.884;12.534;2023-02-08T13:01:24;10.20;99.90
33414;DHT22;60055;41.884;12.534;2023-02-08T13:03:56;10.10;99.90
33414;DHT22;60055;41.884;12.534;2023-02-08T13:06:31;10.00;99.90
33414;DHT22;60055;41.884;12.534;2023-02-08T13:09:05;10.00;99.90
33414;DHT22;60055;41.884;12.534;2023-02-08T13:11:41;10.10;99.90
33414;DHT22;60055;41.884;12.534;2023-02-08T13:16:53;10.20;99.90
33414;DHT22;60055;41.884;12.534;2023-02-08T13:19:23;10.20;99.90
33414;DHT22;60055;41.884;12.534;2023-02-08T13:21:52;10.30;99.90
33414;DHT22;60055;41.884;12.534;2023-02-08T13:26:49;10.30;99.90
33414;DHT22;60055;41.884;12.534;2023-02-08T13:29:17;10.30;99.90
33414;DHT22;60055;41.884;12.534;2023-02-08T13:31:50;10.30;99.90
33414;DHT22;60055;41.884;12.534;2023-02-08T13:37:29;10.30;99.90
33414;DHT22;60055;41.884;12.534;2023-02-08T13:40:05;10.30;99.90
33414;DHT22;60055;41.884;12.534;2023-02-08T13:42:46;10.20;99.90
33414;DHT22;60055;41.884;12.534;2023-02-08T13:45:28;10.10;99.90
33414;DHT22;60055;41.884;12.534;2023-02-08T13:48:07;10.00;99.90
33414;DHT22;60055;41.884;12.534;2023-02-08T13:50:55;10.10;99.90
33414;DHT22;60055;41.884;12.534;2023-02-08T13:56:12;10.00;99.90
33414;DHT22;60055;41.884;12.534;2023-02-08T13:58:59;10.00;99.90
33414;DHT22;60055;41.884;12.534;2023-02-08T14:01:35;10.00;99.90
33414;DHT22;60055;41.884;12.534;2023-02-08T14:06:55;10.00;99.90
33414;DHT22;60055;41.884;12.534;2023-02-08T14:12:19;10.00;99.90
33414;DHT22;60055;41.884;12.534;2023-02-08T14:17:46;10.00;99.90
33414;DHT22;60055;41.884;12.534;2023-02-08T14:20:31;9.90;99.90
33414;DHT22;60055;41.884;12.534;2023-02-08T14:23:03;9.90;99.90
33414;DHT22;60055;41.884;12.534;2023-02-08T14:25:40;9.90;99.90
33414;DHT22;60055;41.884;12.534;2023-02-08T14:30:51;9.80;99.90
33414;DHT22;60055;41.884;12.534;2023-02-08T14:33:28;9.80;99.90
33414;DHT22;60055;41.884;12.534;2023-02-08T14:35:58;9.90;99.90
33414;DHT22;60055;41.884;12.534;2023-02-08T14:38:53;9.80;99.90
33414;DHT22;60055;41.884;12.534;2023-02-08T14:41:52;9.80;99.90
33414;DHT22;60055;41.884;12.534;2023-02-08T14:49:43;10.00;99.90
33414;DHT22;60055;41.884;12.534;2023-02-08T14:52:19;10.00;99.90
33414;DHT22;60055;41.884;12.534;2023-02-08T14:54:46;10.00;99.90
33414;DHT22;60055;41.884;12.534;2023-02-08T14:57:29;10.10;99.90
33414;DHT22;60055;41.884;12.534;2023-02-08T14:59:59;10.10;99.90
33414;DHT22;60055;41.884;12.534;2023-02-08T15:02:27;10.10;99.90
33414;DHT22;60055;41.884;12.534;2023-02-08T15:05:00;10.00;99.90
33414;DHT22;60055;41.884;12.534;2023-02-08T15:10:04;10.00;99.90
33414;DHT22;60055;41.884;12.534;2023-02-08T15:12:36;10.00;99.90
33414;DHT22;60055;41.884;12.534;2023-02-08T15:15:04;10.00;99.90
33414;DHT22;60055;41.884;12.534;2023-02-08T15:17:40;10.00;99.90
33414;DHT22;60055;41.884;12.534;2023-02-08T15:20:38;10.00;99.90
33414;DHT22;60055;41.884;12.534;2023-02-08T15:23:14;10.10;99.90
33414;DHT22;60055;41.884;12.534;2023-02-08T15:25:42;10.10;99.90
33414;DHT22;60055;41.884;12.534;2023-02-08T15:28:21;9.90;99.90
33414;DHT22;60055;41.884;12.534;2023-02-08T15:30:59;9.90;99.90
33414;DHT22;60055;41.884;12.534;2023-02-08T15:33:26;10.00;99.90
33414;DHT22;60055;41.884;12.534;2023-02-08T15:36:02;9.90;99.90
33414;DHT22;60055;41.884;12.534;2023-02-08T15:38:29;10.00;99.90
33414;DHT22;60055;41.884;12.534;2023-02-08T15:41:26;9.90;99.90
33414;DHT22;60055;41.884;12.534;2023-02-08T15:46:38;9.80;99.90
33414;DHT22;60055;41.884;12.534;2023-02-08T15:49:06;9.90;99.90
33414;DHT22;60055;41.884;12.534;2023-02-08T15:51:35;9.80;99.90
33414;DHT22;60055;41.884;12.534;2023-02-08T15:54:01;9.80;99.90
33414;DHT22;60055;41.884;12.534;2023-02-08T15:56:31;9.80;99.90
33414;DHT22;60055;41.884;12.534;2023-02-08T15:58:59;9.80;99.90
33414;DHT22;60055;41.884;12.534;2023-02-08T16:01:26;9.70;99.90
33414;DHT22;60055;41.884;12.534;2023-02-08T16:03:57;9.70;99.90
33414;DHT22;60055;41.884;12.534;2023-02-08T16:06:30;9.70;99.90
33414;DHT22;60055;41.884;12.534;2023-02-08T16:09:00;9.70;99.90
33414;DHT22;60055;41.884;12.534;2023-02-08T16:11:30;9.60;99.90
33414;DHT22;60055;41.884;12.534;2023-02-08T16:13:57;9.60;99.90
33414;DHT22;60055;41.884;12.534;2023-02-08T16:16:35;9.60;99.90
33414;DHT22;60055;41.884;12.534;2023-02-08T16:19:04;9.60;99.90
33414;DHT22;60055;41.884;12.534;2023-02-08T16:24:05;9.50;99.90
33414;DHT22;60055;41.884;12.534;2023-02-08T16:27:03;9.50;99.90
33414;DHT22;60055;41.884;12.534;2023-02-08T16:29:28;9.50;99.90
33414;DHT22;60055;41.884;12.534;2023-02-08T16:32:07;9.50;99.90
33414;DHT22;60055;41.884;12.534;2023-02-08T16:34:35;9.40;99.90
33414;DHT22;60055;41.884;12.534;2023-02-08T16:37:05;9.40;99.90
33414;DHT22;60055;41.884;12.534;2023-02-08T16:40:01;9.30;99.90
33414;DHT22;60055;41.884;12.534;2023-02-08T16:42:31;9.40;99.90
33414;DHT22;60055;41.884;12.534;2023-02-08T16:47:40;9.30;99.90
33414;DHT22;60055;41.884;12.534;2023-02-08T16:50:09;9.20;99.90
33414;DHT22;60055;41.884;12.534;2023-02-08T16:52:35;9.20;99.90
33414;DHT22;60055;41.884;12.534;2023-02-08T16:55:01;9.10;99.90
33414;DHT22;60055;41.884;12.534;2023-02-08T16:57:41;9.10;99.90
33414;DHT22;60055;41.884;12.534;2023-02-08T17:00:22;9.00;99.90
33414;DHT22;60055;41.884;12.534;2023-02-08T17:02:49;8.90;99.90
33414;DHT22;60055;41.884;12.534;2023-02-08T17:05:15;8.90;99.90
33414;DHT22;60055;41.884;12.534;2023-02-08T17:07:41;8.90;99.90
33414;DHT22;60055;41.884;12.534;2023-02-08T17:10:10;8.80;99.90
33414;DHT22;60055;41.884;12.534;2023-02-08T17:12:40;8.70;99.90
33414;DHT22;60055;41.884;12.534;2023-02-08T17:15:05;8.70;99.90
33414;DHT22;60055;41.884;12.534;2023-02-08T17:17:31;8.60;99.90
33414;DHT22;60055;41.884;12.534;2023-02-08T17:19:57;8.60;99.90
33414;DHT22;60055;41.884;12.534;2023-02-08T17:22:22;8.60;99.90
33414;DHT22;60055;41.884;12.534;2023-02-08T17:24:48;8.50;99.90
33414;DHT22;60055;41.884;12.534;2023-02-08T17:27:13;8.50;99.90
33414;DHT22;60055;41.884;12.534;2023-02-08T17:29:39;8.50;99.90
33414;DHT22;60055;41.884;12.534;2023-02-08T17:32:05;8.40;99.90
33414;DHT22;60055;41.884;12.534;2023-02-08T17:34:31;8.40;99.90
33414;DHT22;60055;41.884;12.534;2023-02-08T17:36:57;8.40;99.90
33414;DHT22;60055;41.884;12.534;2023-02-08T17:39:22;8.40;99.90
33414;DHT22;60055;41.884;12.534;2023-02-08T17:41:48;8.40;99.90
33414;DHT22;60055;41.884;12.534;2023-02-08T17:44:14;8.30;99.90
33414;DHT22;60055;41.884;12.534;2023-02-08T17:46:41;8.20;99.90
33414;DHT22;60055;41.884;12.534;2023-02-08T17:49:06;8.20;99.90
33414;DHT22;60055;41.884;12.534;2023-02-08T17:51:32;8.20;99.90
33414;DHT22;60055;41.884;12.534;2023-02-08T17:54:02;8.20;99.90
33414;DHT22;60055;41.884;12.534;2023-02-08T17:56:29;8.10;99.90
33414;DHT22;60055;41.884;12.534;2023-02-08T17:58:59;8.10;99.90
33414;DHT22;60055;41.884;12.534;2023-02-08T18:01:28;8.10;99.90
33414;DHT22;60055;41.884;12.534;2023-02-08T18:03:54;8.10;99.90
33414;DHT22;60055;41.884;12.534;2023-02-08T18:06:19;8.10;99.90
33414;DHT22;60055;41.884;12.534;2023-02-08T18:08:46;8.00;99.90
33414;DHT22;60055;41.884;12.534;2023-02-08T18:11:14;7.90;99.90
33414;DHT22;60055;41.884;12.534;2023-02-08T18:13:42;7.90;99.90